Time;durP1;ratioP1;P1;durP2;ratioP2;P2;SDS_P1;SDS_P2;PMS_P1;PMS_P2;Temp;Humidity;BMP_temperature;BMP_pressure;BME280_temperature;BME280_humidity;BME280_pressure;Samples;Min_cycle;Max_cycle;Signal;HPM_P1;HPM_P2
2023/07/25 00:03:06;;;;;;;3.77;3.37;;;21.50;45.40;;;;;;10474774;28;20315;-76
2023/07/25 00:08:09;;;;;;;3.23;2.93;;;21.50;45.40;;;;;;10476841;28;20248;-76
2023/07/25 00:13:12;;;;;;;4.07;3.23;;;21.60;45.20;;;;;;10482830;28;20736;-75
2023/07/25 00:18:17;;;;;;;5.03;3.20;;;21.60;45.20;;;;;;10477319;28;20771;-75
2023/07/25 00:23:20;;;;;;;3.10;2.60;;;21.60;45.30;;;;;;10490573;28;20302;-75
2023/07/25 00:28:23;;;;;;;3.97;2.90;;;21.70;44.70;;;;;;10469038;28;20224;-76
2023/07/25 00:33:28;;;;;;;4.97;3.30;;;21.70;44.40;;;;;;10469561;28;20328;-77
2023/07/25 00:38:31;;;;;;;3.20;2.77;;;21.70;44.70;;;;;;10483401;28;20255;-76
2023/07/25 00:43:34;;;;;;;3.63;3.23;;;21.60;44.30;;;;;;10482586;28;20924;-76
2023/07/25 00:48:39;;;;;;;4.33;3.07;;;21.60;44.40;;;;;;10477537;28;20311;-76
2023/07/25 00:53:42;;;;;;;3.63;3.33;;;21.60;44.60;;;;;;10476257;28;20229;-76
2023/07/25 00:58:47;;;;;;;3.30;3.00;;;21.60;44.10;;;;;;10473959;28;20220;-76
2023/07/25 01:03:53;;;;;;;4.53;2.13;;;21.60;44.20;;;;;;10480166;28;20228;-76
2023/07/25 01:08:57;;;;;;;5.17;3.20;;;21.60;44.40;;;;;;10477454;28;20318;-76
2023/07/25 01:14:00;;;;;;;5.30;2.40;;;21.60;44.30;;;;;;10480946;28;20747;-76
2023/07/25 01:19:05;;;;;;;3.07;2.60;;;21.60;44.10;;;;;;10482471;28;20231;-76
2023/07/25 01:24:10;;;;;;;2.97;2.73;;;21.60;44.40;;;;;;10469330;28;20239;-76
2023/07/25 01:29:13;;;;;;;3.00;2.70;;;21.60;44.50;;;;;;10477526;28;20235;-76
2023/07/25 01:34:16;;;;;;;4.00;2.93;;;21.60;44.30;;;;;;10471359;28;20772;-76
2023/07/25 01:39:21;;;;;;;2.97;2.77;;;21.60;44.10;;;;;;10469291;28;20259;-76
2023/07/25 01:44:24;;;;;;;4.43;2.80;;;21.60;44.30;;;;;;10476183;28;20741;-76
2023/07/25 01:49:27;;;;;;;4.83;3.07;;;21.50;44.00;;;;;;10475617;28;20228;-76
2023/07/25 01:54:31;;;;;;;3.90;2.57;;;21.40;44.20;;;;;;10475920;28;20233;-76
2023/07/25 01:59:35;;;;;;;4.30;3.07;;;21.40;44.60;;;;;;10474962;28;20227;-76
2023/07/25 02:04:38;;;;;;;4.50;3.33;;;21.40;44.40;;;;;;10475589;28;20316;-76
2023/07/25 02:09:42;;;;;;;2.97;2.77;;;21.40;44.60;;;;;;10478158;28;20226;-76
2023/07/25 02:14:46;;;;;;;4.77;3.40;;;21.40;44.90;;;;;;10474738;28;20224;-76
2023/07/25 02:19:49;;;;;;;3.47;3.17;;;21.40;44.60;;;;;;10480509;28;20303;-76
2023/07/25 02:24:53;;;;;;;3.73;3.43;;;21.40;44.70;;;;;;10476956;28;20226;-76
2023/07/25 02:29:57;;;;;;;4.27;3.30;;;21.40;45.00;;;;;;10472929;28;20263;-76
2023/07/25 02:35:00;;;;;;;4.70;3.60;;;21.30;44.60;;;;;;10475256;28;20311;-76
2023/07/25 02:40:05;;;;;;;5.13;3.50;;;21.30;44.80;;;;;;10445826;28;20235;-76
2023/07/25 02:45:09;;;;;;;3.57;3.10;;;21.20;45.20;;;;;;10441403;28;20244;-76
2023/07/25 02:50:12;;;;;;;4.87;2.83;;;21.20;45.00;;;;;;10440004;28;20235;-76
2023/07/25 02:55:18;;;;;;;3.13;2.83;;;21.10;44.90;;;;;;10445634;28;20227;-76
2023/07/25 03:00:21;;;;;;;4.67;3.20;;;21.10;45.30;;;;;;10434466;28;20276;-76
2023/07/25 03:05:27;;;;;;;4.97;3.40;;;21.10;45.00;;;;;;10436868;28;20601;-76
2023/07/25 03:10:32;;;;;;;4.87;3.00;;;21.10;45.00;;;;;;10442659;28;20294;-76
2023/07/25 03:15:35;;;;;;;5.40;3.50;;;21.10;45.50;;;;;;10433241;28;20317;-76
2023/07/25 03:20:38;;;;;;;7.47;3.10;;;21.00;45.20;;;;;;10440923;28;20312;-76
2023/07/25 03:25:43;;;;;;;3.97;3.10;;;21.00;45.30;;;;;;10439146;28;20228;-76
2023/07/25 03:30:46;;;;;;;4.60;3.43;;;21.00;45.60;;;;;;10436981;28;20707;-76
2023/07/25 03:35:49;;;;;;;7.40;3.10;;;21.00;45.30;;;;;;10430621;28;20918;-76
2023/07/25 03:40:54;;;;;;;4.47;3.60;;;21.10;45.30;;;;;;10440542;28;20308;-76
2023/07/25 03:45:57;;;;;;;3.17;2.87;;;21.10;45.70;;;;;;10439043;28;20257;-76
2023/07/25 03:51:01;;;;;;;6.20;3.33;;;21.10;45.30;;;;;;10429640;28;20221;-76
2023/07/25 03:56:07;;;;;;;3.93;3.27;;;21.10;45.50;;;;;;10442064;28;20232;-76
2023/07/25 04:01:10;;;;;;;3.53;3.20;;;21.10;45.80;;;;;;10429705;28;20244;-75
2023/07/25 04:06:13;;;;;;;3.83;3.50;;;21.10;45.40;;;;;;10435257;28;20233;-76
2023/07/25 04:11:18;;;;;;;4.20;3.80;;;21.10;45.40;;;;;;10440759;28;20232;-76
2023/07/25 04:16:21;;;;;;;3.77;2.97;;;21.10;46.00;;;;;;10444330;28;20264;-76
2023/07/25 04:21:24;;;;;;;3.63;3.33;;;21.10;45.70;;;;;;10435025;28;20225;-77
2023/07/25 04:26:29;;;;;;;5.80;3.63;;;21.10;45.80;;;;;;10433779;28;21056;-77
2023/07/25 04:31:32;;;;;;;4.67;3.43;;;21.10;46.00;;;;;;10445410;28;20241;-77
2023/07/25 04:36:36;;;;;;;5.00;3.40;;;21.20;45.70;;;;;;10438874;28;20228;-74
2023/07/25 04:41:40;;;;;;;4.63;3.50;;;21.20;45.70;;;;;;10427559;28;20225;-74
2023/07/25 04:46:44;;;;;;;3.07;2.77;;;21.10;46.10;;;;;;10425122;28;20603;-75
2023/07/25 04:51:47;;;;;;;4.57;3.57;;;21.10;45.80;;;;;;10420728;28;20708;-74
2023/07/25 04:56:51;;;;;;;3.90;3.40;;;21.10;46.00;;;;;;10424815;28;20229;-74
2023/07/25 05:01:54;;;;;;;4.43;3.30;;;21.10;46.40;;;;;;10427821;28;20229;-75
2023/07/25 05:06:58;;;;;;;5.70;3.53;;;21.10;46.10;;;;;;10421192;28;20229;-74
2023/07/25 05:12:04;;;;;;;4.07;3.30;;;21.10;46.20;;;;;;10424400;28;20654;-74
2023/07/25 05:17:08;;;;;;;4.87;3.23;;;21.00;46.70;;;;;;10432748;28;20315;-75
2023/07/25 05:22:11;;;;;;;5.70;3.37;;;21.00;46.50;;;;;;10424925;28;20221;-74
2023/07/25 05:27:16;;;;;;;3.47;3.17;;;21.10;46.60;;;;;;10424163;28;20768;-75
2023/07/25 05:32:22;;;;;;;3.40;3.10;;;21.10;46.70;;;;;;10422566;28;20228;-75
2023/07/25 05:37:35;;;;;;;3.53;3.23;;;21.20;46.90;;;;;;10427180;28;20268;-75
2023/07/25 05:42:39;;;;;;;4.30;3.50;;;21.20;47.20;;;;;;10464594;28;20311;-75
2023/07/25 05:47:42;;;;;;;3.87;3.47;;;21.30;47.20;;;;;;10466719;28;20229;-75
2023/07/25 05:52:46;;;;;;;5.37;3.83;;;21.30;46.80;;;;;;10466092;28;20220;-75
2023/07/25 05:57:50;;;;;;;4.20;3.80;;;21.40;46.90;;;;;;10465974;28;20322;-75
2023/07/25 06:02:57;;;;;;;4.97;3.87;;;21.40;47.10;;;;;;10466474;28;20231;-75
2023/07/25 06:08:00;;;;;;;4.37;3.90;;;21.40;46.80;;;;;;10463898;28;20771;-74
2023/07/25 06:13:06;;;;;;;4.63;3.67;;;21.40;47.00;;;;;;10422717;28;20305;-74
2023/07/25 06:18:09;;;;;;;4.20;3.80;;;21.40;47.40;;;;;;10419652;28;20233;-74
2023/07/25 06:23:12;;;;;;;6.97;3.80;;;21.40;47.10;;;;;;10421174;28;20549;-74
2023/07/25 06:28:17;;;;;;;5.40;4.00;;;21.50;47.30;;;;;;10423318;28;20266;-74
2023/07/25 06:33:22;;;;;;;4.53;3.77;;;21.50;47.80;;;;;;10420493;28;20237;-75
2023/07/25 06:38:26;;;;;;;4.53;4.13;;;21.50;47.50;;;;;;10408740;28;20245;-75
2023/07/25 06:43:30;;;;;;;4.67;3.97;;;21.50;47.80;;;;;;10418219;28;20233;-74
2023/07/25 06:48:33;;;;;;;5.07;3.50;;;21.50;48.40;;;;;;10415561;28;20246;-74
2023/07/25 06:53:36;;;;;;;4.40;4.00;;;21.60;48.00;;;;;;10418182;28;20236;-74
2023/07/25 06:58:45;;;;;;;4.00;3.60;;;21.70;48.20;;;;;;10419991;28;20233;-74
2023/07/25 07:03:48;;;;;;;6.50;3.87;;;21.70;48.40;;;;;;10408006;28;20235;-75
2023/07/25 07:08:52;;;;;;;3.60;3.30;;;21.80;48.10;;;;;;10412392;28;20320;-75
2023/07/25 07:13:56;;;;;;;4.20;3.80;;;21.90;48.40;;;;;;10407484;28;20218;-75
2023/07/25 07:19:00;;;;;;;4.30;3.70;;;22.10;48.60;;;;;;10413399;28;20233;-75
2023/07/25 07:24:03;;;;;;;3.80;3.50;;;22.10;48.60;;;;;;10413430;28;20297;-74
2023/07/25 07:29:09;;;;;;;3.90;3.60;;;22.30;48.40;;;;;;10419524;28;20256;-74
2023/07/25 07:34:14;;;;;;;3.77;3.47;;;22.40;47.90;;;;;;10425777;28;20340;-74
2023/07/25 07:39:18;;;;;;;3.40;3.17;;;22.50;48.00;;;;;;10420803;28;20235;-75
2023/07/25 07:44:23;;;;;;;3.67;3.00;;;22.70;47.90;;;;;;10422536;28;20405;-75
2023/07/25 07:49:27;;;;;;;4.00;3.30;;;22.80;47.20;;;;;;10425995;28;20234;-76
2023/07/25 07:54:32;;;;;;;3.67;3.30;;;22.90;47.50;;;;;;10418518;28;20230;-75
2023/07/25 07:59:37;;;;;;;3.77;3.30;;;22.90;47.40;;;;;;10424023;28;20596;-76
2023/07/25 08:04:40;;;;;;;4.57;3.60;;;23.00;47.50;;;;;;10411497;28;20340;-73
2023/07/25 08:09:44;;;;;;;3.53;2.83;;;23.10;47.30;;;;;;10428734;28;20228;-75
2023/07/25 08:14:48;;;;;;;3.90;3.03;;;23.10;46.80;;;;;;10426211;28;20278;-75
2023/07/25 08:19:51;;;;;;;3.70;3.40;;;23.10;46.90;;;;;;10424683;28;20306;-75
2023/07/25 08:24:55;;;;;;;3.33;3.10;;;23.20;46.90;;;;;;10423008;28;20229;-75
2023/07/25 08:29:59;;;;;;;3.93;3.53;;;23.20;46.60;;;;;;10425493;28;20232;-75
2023/07/25 08:35:03;;;;;;;4.23;3.50;;;23.20;46.30;;;;;;10425824;28;20225;-75
2023/07/25 08:40:08;;;;;;;4.30;3.10;;;23.20;46.40;;;;;;10416860;28;20764;-75
2023/07/25 08:45:13;;;;;;;3.50;3.20;;;23.20;46.20;;;;;;10424054;28;20229;-74
2023/07/25 08:50:17;;;;;;;3.33;3.03;;;23.20;45.90;;;;;;10415631;28;20229;-74
2023/07/25 08:55:21;;;;;;;3.13;2.93;;;23.20;46.10;;;;;;10418249;28;20725;-73
2023/07/25 09:00:28;;;;;;;6.30;3.00;;;23.20;46.20;;;;;;10423884;28;20229;-73
2023/07/25 09:05:32;;;;;;;4.27;3.30;;;23.10;46.80;;;;;;10425924;28;20264;-73
2023/07/25 09:10:35;;;;;;;3.67;3.00;;;22.90;46.80;;;;;;10421383;28;20247;-74
2023/07/25 09:15:41;;;;;;;4.00;3.30;;;22.80;47.10;;;;;;10416862;28;20312;-73
2023/07/25 09:20:44;;;;;;;3.80;3.50;;;22.70;47.70;;;;;;10423820;28;20235;-73
2023/07/25 09:25:48;;;;;;;3.53;3.23;;;22.60;47.40;;;;;;10414000;28;20257;-73
2023/07/25 09:30:53;;;;;;;3.50;3.20;;;22.50;47.60;;;;;;10419082;28;20221;-73
2023/07/25 09:35:56;;;;;;;3.47;3.03;;;22.50;48.00;;;;;;10416671;28;20239;-73
2023/07/25 09:40:59;;;;;;;3.67;2.70;;;22.40;47.50;;;;;;10418072;28;20232;-73
2023/07/25 09:46:04;;;;;;;2.43;2.23;;;22.40;47.50;;;;;;10414718;28;20237;-73
2023/07/25 09:51:07;;;;;;;2.50;2.30;;;22.40;47.40;;;;;;10414768;28;20221;-73
2023/07/25 09:56:11;;;;;;;3.03;2.80;;;22.50;47.10;;;;;;10421114;28;20232;-72
2023/07/25 10:01:16;;;;;;;2.50;2.30;;;22.50;46.20;;;;;;10411037;28;20324;-73
2023/07/25 10:06:20;;;;;;;2.63;2.40;;;22.40;45.90;;;;;;10419766;28;20221;-73
2023/07/25 10:11:24;;;;;;;2.70;2.50;;;22.40;46.10;;;;;;10426116;28;20245;-73
2023/07/25 10:16:29;;;;;;;2.83;2.50;;;22.40;46.50;;;;;;10427291;28;20243;-74
2023/07/25 10:21:47;;;;;;;2.57;2.33;;;22.50;46.20;;;;;;10433009;28;20316;-76
2023/07/25 10:26:55;;;;;;;2.57;2.37;;;22.60;46.40;;;;;;10424892;28;20233;-77
2023/07/25 10:31:59;;;;;;;2.10;2.00;;;22.70;45.70;;;;;;10426836;28;20254;-77
2023/07/25 10:37:24;;;;;;;2.57;2.37;;;22.80;45.50;;;;;;10429990;28;20702;-77
2023/07/25 10:42:41;;;;;;;3.53;2.57;;;23.00;45.30;;;;;;10421373;28;20281;-75
2023/07/25 10:48:03;;;;;;;3.23;2.70;;;23.00;46.00;;;;;;10430746;28;20217;-75
2023/07/25 10:53:15;;;;;;;4.17;2.33;;;22.90;44.90;;;;;;10463436;28;20574;-75
2023/07/25 10:58:18;;;;;;;2.53;2.33;;;22.80;46.10;;;;;;10435704;28;20315;-75
2023/07/25 11:03:30;;;;;;;3.07;2.50;;;22.60;45.80;;;;;;10422971;28;20247;-76
2023/07/25 11:08:34;;;;;;;2.63;2.43;;;22.50;46.90;;;;;;10433886;28;20732;-75
2023/07/25 11:13:40;;;;;;;2.10;1.90;;;22.50;46.70;;;;;;10441463;28;20231;-75
2023/07/25 11:18:51;;;;;;;1.93;1.83;;;22.50;45.10;;;;;;10438431;28;20236;-76
2023/07/25 11:24:03;;;;;;;2.00;1.90;;;22.50;45.20;;;;;;10438825;28;20231;-77
2023/07/25 11:29:09;;;;;;;1.63;1.53;;;22.40;43.60;;;;;;10439124;28;20993;-77
2023/07/25 11:34:14;;;;;;;1.70;1.60;;;22.30;44.20;;;;;;10447544;28;20251;-75
2023/07/25 11:39:19;;;;;;;2.30;1.57;;;22.10;43.50;;;;;;10417627;28;20240;-76
2023/07/25 11:44:24;;;;;;;1.70;1.60;;;21.90;43.70;;;;;;10447330;28;20236;-75
2023/07/25 11:49:29;;;;;;;1.93;1.83;;;21.70;44.20;;;;;;10462691;28;20228;-76
2023/07/25 11:54:53;;;;;;;1.63;1.53;;;21.50;44.70;;;;;;10482673;28;20227;-76
2023/07/25 11:59:56;;;;;;;2.00;1.80;;;21.40;45.30;;;;;;10486730;28;20232;-75
2023/07/25 12:05:01;;;;;;;1.77;1.63;;;21.40;45.60;;;;;;10475589;28;20235;-75
2023/07/25 12:10:05;;;;;;;1.70;1.60;;;21.50;46.00;;;;;;10470881;28;20240;-74
2023/07/25 12:15:08;;;;;;;1.73;1.63;;;21.50;45.70;;;;;;10467677;28;20239;-72
2023/07/25 12:20:18;;;;;;;2.00;1.80;;;21.60;45.10;;;;;;10473256;28;20294;-75
2023/07/25 12:25:21;;;;;;;1.80;1.70;;;21.70;45.20;;;;;;10472978;28;20586;-74
2023/07/25 12:30:25;;;;;;;1.60;1.50;;;21.70;45.20;;;;;;10474616;28;20242;-72
2023/07/25 12:35:30;;;;;;;2.90;1.60;;;21.70;45.20;;;;;;10473119;28;20259;-78
2023/07/25 12:40:33;;;;;;;1.77;1.40;;;21.70;46.20;;;;;;10455580;28;20773;-76
2023/07/25 12:45:36;;;;;;;1.57;1.13;;;21.70;45.90;;;;;;10469339;28;20673;-77
2023/07/25 12:50:41;;;;;;;1.30;1.20;;;21.80;46.20;;;;;;10462031;28;20232;-79
2023/07/25 12:55:45;;;;;;;1.33;1.30;;;21.90;44.50;;;;;;10468457;28;20229;-79
2023/07/25 13:00:49;;;;;;;1.50;1.40;;;21.90;44.80;;;;;;10473464;28;20312;-76
2023/07/25 13:05:54;;;;;;;1.37;1.23;;;21.90;45.40;;;;;;10475256;28;20638;-73
2023/07/25 13:10:57;;;;;;;1.60;1.50;;;22.00;45.80;;;;;;10485750;28;20232;-75
2023/07/25 13:16:00;;;;;;;1.50;1.40;;;22.10;45.70;;;;;;10488846;28;20659;-77
2023/07/25 13:21:06;;;;;;;1.43;1.33;;;22.30;45.50;;;;;;10494607;28;20231;-77
2023/07/25 13:26:10;;;;;;;1.50;1.40;;;22.40;44.70;;;;;;10485818;28;20272;-78
2023/07/25 13:31:16;;;;;;;2.20;1.40;;;22.60;45.60;;;;;;10452156;28;20243;-78
2023/07/25 13:36:20;;;;;;;1.67;1.57;;;22.90;44.30;;;;;;10452730;28;20709;-76
2023/07/25 13:41:24;;;;;;;2.27;1.50;;;23.00;44.10;;;;;;10451610;28;20217;-78
2023/07/25 13:46:27;;;;;;;2.03;1.90;;;23.20;44.70;;;;;;10456262;28;20228;-78
2023/07/25 13:51:31;;;;;;;1.70;1.60;;;23.20;44.60;;;;;;10490981;28;20232;-78
2023/07/25 13:56:36;;;;;;;1.77;1.50;;;23.40;42.90;;;;;;10488979;28;20740;-78
2023/07/25 14:01:42;;;;;;;1.83;1.73;;;23.50;43.10;;;;;;10484054;28;20275;-80
2023/07/25 14:06:50;;;;;;;2.00;1.73;;;23.70;43.30;;;;;;10487685;28;20221;-80
2023/07/25 14:11:54;;;;;;;1.90;1.70;;;23.90;42.90;;;;;;10474425;28;20278;-78
2023/07/25 14:17:00;;;;;;;1.90;1.67;;;24.10;42.20;;;;;;10468514;28;20261;-78
2023/07/25 14:22:05;;;;;;;1.83;1.70;;;24.10;42.00;;;;;;10475495;28;20220;-78
2023/07/25 14:27:09;;;;;;;1.80;1.70;;;24.10;41.30;;;;;;10491491;28;20308;-78
2023/07/25 14:32:17;;;;;;;1.90;1.50;;;24.10;41.80;;;;;;10486329;28;20224;-76
2023/07/25 14:37:21;;;;;;;2.37;1.70;;;24.10;41.20;;;;;;10478949;28;20320;-78
2023/07/25 14:42:25;;;;;;;2.13;1.80;;;24.10;41.70;;;;;;10469107;28;20274;-77
2023/07/25 14:47:28;;;;;;;1.97;1.60;;;23.90;41.80;;;;;;10475096;28;20315;-76
2023/07/25 14:52:33;;;;;;;1.93;1.80;;;23.60;41.40;;;;;;10490946;28;20220;-77
2023/07/25 14:57:36;;;;;;;1.60;1.50;;;23.20;41.40;;;;;;10486282;28;20278;-76
2023/07/25 15:02:39;;;;;;;1.20;1.10;;;22.90;41.60;;;;;;10486733;28;20235;-76
2023/07/25 15:07:44;;;;;;;1.60;1.50;;;22.60;41.10;;;;;;10480183;28;20262;-78
2023/07/25 15:12:48;;;;;;;1.60;1.50;;;22.20;41.20;;;;;;10490347;28;20244;-78
2023/07/25 15:17:52;;;;;;;3.63;1.67;;;21.90;42.00;;;;;;10488489;28;20229;-77
2023/07/25 15:22:57;;;;;;;1.80;1.70;;;21.70;42.40;;;;;;10488435;28;20224;-77
2023/07/25 15:28:00;;;;;;;1.50;1.40;;;21.50;42.20;;;;;;10487829;28;20311;-78
2023/07/25 15:33:03;;;;;;;1.67;1.17;;;21.40;42.30;;;;;;10476699;28;20311;-76
2023/07/25 15:38:09;;;;;;;3.63;1.50;;;21.20;42.00;;;;;;10482807;28;20228;-76
2023/07/25 15:43:12;;;;;;;1.40;1.30;;;21.20;42.50;;;;;;10479007;28;20808;-76
2023/07/25 15:48:15;;;;;;;1.50;1.40;;;21.20;42.50;;;;;;10474854;28;20311;-77
2023/07/25 15:53:20;;;;;;;1.53;1.40;;;21.20;42.50;;;;;;10487141;28;20601;-77
2023/07/25 15:58:23;;;;;;;1.40;1.30;;;21.30;42.70;;;;;;10486836;28;20263;-77
2023/07/25 16:03:26;;;;;;;1.33;1.23;;;21.30;42.50;;;;;;10492054;28;20705;-76
2023/07/25 16:08:33;;;;;;;1.33;1.23;;;21.30;43.00;;;;;;10491712;28;20712;-76
2023/07/25 16:13:38;;;;;;;2.50;1.20;;;21.40;42.80;;;;;;10490487;28;20731;-77
2023/07/25 16:18:41;;;;;;;1.30;1.20;;;21.50;42.60;;;;;;10479432;28;20225;-76
2023/07/25 16:23:46;;;;;;;1.13;1.03;;;21.50;42.30;;;;;;10472746;28;21150;-76
2023/07/25 16:28:50;;;;;;;1.50;1.40;;;21.40;42.60;;;;;;10491555;28;20834;-78
2023/07/25 16:33:54;;;;;;;1.43;1.30;;;21.30;42.70;;;;;;10487254;28;20258;-77
2023/07/25 16:38:58;;;;;;;1.50;1.40;;;21.20;42.90;;;;;;10486869;28;20228;-77
2023/07/25 16:44:02;;;;;;;2.23;1.50;;;21.10;43.30;;;;;;10489223;28;20237;-77
2023/07/25 16:49:06;;;;;;;2.27;1.47;;;20.90;43.50;;;;;;10488994;28;20259;-77
2023/07/25 16:54:10;;;;;;;1.73;1.40;;;20.80;43.60;;;;;;10485928;28;20224;-77
2023/07/25 16:59:13;;;;;;;2.37;1.13;;;20.80;44.20;;;;;;10488247;28;20712;-77
2023/07/25 17:04:16;;;;;;;1.40;1.30;;;20.70;44.00;;;;;;10489226;28;20320;-77
2023/07/25 17:09:21;;;;;;;1.67;1.10;;;20.80;44.20;;;;;;10489285;28;20312;-77
2023/07/25 17:14:24;;;;;;;2.40;1.20;;;20.80;44.50;;;;;;10483476;28;20274;-78
2023/07/25 17:19:27;;;;;;;1.63;1.40;;;20.90;44.50;;;;;;10481547;28;20216;-77
2023/07/25 17:24:32;;;;;;;1.60;1.47;;;20.80;44.30;;;;;;10488803;28;20295;-77
2023/07/25 17:29:36;;;;;;;1.73;1.57;;;20.80;44.50;;;;;;10488773;28;20236;-76
2023/07/25 17:34:39;;;;;;;2.13;1.27;;;20.70;44.50;;;;;;10488815;28;20254;-78
2023/07/25 17:39:44;;;;;;;2.13;1.60;;;20.60;44.60;;;;;;10477438;28;20315;-75
2023/07/25 17:44:47;;;;;;;1.60;1.50;;;20.60;45.40;;;;;;10473440;28;20661;-75
2023/07/25 17:49:50;;;;;;;2.27;1.30;;;20.60;45.30;;;;;;10475868;28;20232;-75
2023/07/25 17:54:55;;;;;;;1.43;1.30;;;20.60;45.40;;;;;;10472130;28;20691;-75
2023/07/25 17:59:58;;;;;;;4.17;1.50;;;20.70;45.90;;;;;;10464966;28;20311;-75
2023/07/25 18:05:01;;;;;;;2.10;1.30;;;20.70;45.60;;;;;;10469010;28;20220;-75
2023/07/25 18:10:07;;;;;;;2.27;1.53;;;20.70;45.40;;;;;;10470263;28;20303;-75
2023/07/25 18:15:10;;;;;;;1.30;1.20;;;20.70;46.00;;;;;;10465736;28;20233;-75
2023/07/25 18:20:14;;;;;;;1.80;1.47;;;20.60;45.50;;;;;;10474891;28;20331;-75
2023/07/25 18:25:18;;;;;;;1.43;1.33;;;20.60;45.50;;;;;;10469302;28;20228;-75
2023/07/25 18:30:22;;;;;;;1.40;1.30;;;20.50;46.00;;;;;;10473107;28;20774;-75
2023/07/25 18:35:25;;;;;;;2.53;1.40;;;20.50;45.60;;;;;;10478890;28;21281;-75
2023/07/25 18:40:30;;;;;;;3.20;1.50;;;20.40;45.70;;;;;;10475592;28;20229;-75
2023/07/25 18:45:33;;;;;;;1.93;1.20;;;20.40;46.00;;;;;;10489161;28;20235;-75
2023/07/25 18:50:38;;;;;;;1.53;1.37;;;20.40;45.80;;;;;;10469320;28;20240;-75
2023/07/25 18:55:42;;;;;;;1.70;1.30;;;20.40;46.20;;;;;;10481801;28;20224;-75
2023/07/25 19:00:47;;;;;;;1.47;1.10;;;20.40;46.20;;;;;;10480906;28;20284;-73
2023/07/25 19:05:52;;;;;;;1.80;1.17;;;20.40;45.90;;;;;;10479783;28;20224;-74
2023/07/25 19:10:57;;;;;;;1.70;1.60;;;20.50;46.00;;;;;;10484446;28;20346;-74
2023/07/25 19:16:00;;;;;;;1.20;1.20;;;20.50;46.00;;;;;;10485148;28;20285;-74
2023/07/25 19:21:04;;;;;;;1.10;1.10;;;20.50;45.90;;;;;;10485635;28;20307;-77
2023/07/25 19:26:08;;;;;;;1.57;1.10;;;20.50;45.80;;;;;;10488551;28;20272;-74
2023/07/25 19:31:12;;;;;;;1.33;1.23;;;20.50;45.80;;;;;;10478070;28;20659;-75
2023/07/25 19:36:15;;;;;;;1.83;1.13;;;20.40;45.50;;;;;;10488706;28;20228;-76
2023/07/25 19:41:20;;;;;;;2.73;1.30;;;20.30;45.60;;;;;;10486921;28;20236;-77
2023/07/25 19:46:23;;;;;;;1.37;1.17;;;20.20;46.20;;;;;;10488769;28;20238;-73
2023/07/25 19:51:26;;;;;;;1.37;1.23;;;20.10;46.00;;;;;;10491686;28;20232;-74
2023/07/25 19:56:37;;;;;;;1.60;1.40;;;20.00;46.10;;;;;;10492092;28;20395;-72
2023/07/25 20:01:40;;;;;;;1.60;1.10;;;19.90;47.00;;;;;;10492146;28;20651;-74
2023/07/25 20:06:43;;;;;;;1.63;1.00;;;19.80;46.20;;;;;;10491888;28;20311;-74
2023/07/25 20:11:48;;;;;;;1.10;1.00;;;19.80;46.20;;;;;;10491617;28;20225;-72
2023/07/25 20:16:51;;;;;;;1.20;1.10;;;19.80;46.00;;;;;;10492012;28;20783;-72
2023/07/25 20:21:54;;;;;;;1.07;1.07;;;19.70;45.30;;;;;;10491236;28;20319;-73
2023/07/25 20:26:59;;;;;;;1.50;0.90;;;19.70;45.20;;;;;;10490026;28;20728;-73
2023/07/25 20:32:02;;;;;;;0.90;0.90;;;19.50;45.30;;;;;;10490305;28;20319;-73
2023/07/25 20:37:07;;;;;;;0.80;0.80;;;19.40;45.20;;;;;;10491774;28;20239;-72
2023/07/25 20:42:11;;;;;;;0.70;0.70;;;19.40;45.50;;;;;;10492082;28;20255;-73
2023/07/25 20:47:14;;;;;;;0.73;0.73;;;19.40;45.30;;;;;;10491021;28;20232;-73
2023/07/25 20:52:18;;;;;;;0.80;0.80;;;19.30;45.00;;;;;;10491128;28;20319;-73
2023/07/25 20:57:22;;;;;;;1.63;0.80;;;19.30;45.00;;;;;;10490711;28;20274;-74
2023/07/25 21:02:26;;;;;;;0.83;0.80;;;19.30;45.40;;;;;;10490642;28;20652;-73
2023/07/25 21:07:29;;;;;;;0.90;0.90;;;19.30;45.40;;;;;;10490067;28;20636;-73
2023/07/25 21:12:34;;;;;;;1.27;1.07;;;19.30;46.30;;;;;;10490163;28;20240;-73
2023/07/25 21:17:37;;;;;;;0.83;0.83;;;19.30;45.60;;;;;;10488768;28;20228;-73
2023/07/25 21:22:41;;;;;;;0.90;0.90;;;19.20;44.90;;;;;;10489201;28;20513;-73
2023/07/25 21:27:45;;;;;;;1.30;1.20;;;19.20;44.80;;;;;;10488467;28;20311;-73
2023/07/25 21:32:48;;;;;;;1.07;1.00;;;19.10;45.10;;;;;;10489482;28;20308;-73
2023/07/25 21:37:52;;;;;;;1.43;0.90;;;19.00;44.80;;;;;;10488594;28;20232;-74
2023/07/25 21:42:56;;;;;;;2.07;1.23;;;18.90;45.00;;;;;;10480668;28;20251;-72
2023/07/25 21:48:00;;;;;;;1.67;1.57;;;18.80;45.20;;;;;;10481075;28;20307;-72
2023/07/25 21:53:03;;;;;;;1.87;1.77;;;18.80;45.00;;;;;;10486020;28;20669;-72
2023/07/25 21:58:08;;;;;;;1.90;1.80;;;18.70;45.00;;;;;;10489374;28;20612;-73
2023/07/25 22:03:11;;;;;;;2.20;1.97;;;18.60;45.40;;;;;;10488961;28;20848;-72
2023/07/25 22:08:14;;;;;;;1.80;1.70;;;18.50;45.20;;;;;;10489117;28;20294;-72
2023/07/25 22:13:19;;;;;;;1.83;1.73;;;18.40;45.30;;;;;;10489192;28;20240;-73
2023/07/25 22:18:22;;;;;;;2.07;1.87;;;18.20;45.50;;;;;;10489100;28;20248;-73
2023/07/25 22:23:26;;;;;;;1.77;1.67;;;18.30;45.70;;;;;;10489235;28;20238;-73
2023/07/25 22:28:31;;;;;;;1.77;1.67;;;18.20;45.70;;;;;;10488498;28;20228;-72
2023/07/25 22:33:34;;;;;;;1.93;1.63;;;18.20;45.90;;;;;;10485940;28;20234;-72
2023/07/25 22:38:37;;;;;;;2.53;2.00;;;18.20;45.50;;;;;;10488115;28;20223;-72
2023/07/25 22:43:42;;;;;;;1.90;1.80;;;18.30;45.70;;;;;;10488692;28;20974;-73
2023/07/25 22:48:45;;;;;;;1.50;1.40;;;18.30;45.40;;;;;;10488591;28;21106;-72
2023/07/25 22:53:51;;;;;;;2.10;2.00;;;18.30;45.30;;;;;;10488516;28;20661;-72
2023/07/25 22:58:56;;;;;;;1.70;1.60;;;18.30;45.00;;;;;;10489298;28;20263;-72
2023/07/25 23:04:00;;;;;;;1.63;1.53;;;18.30;44.80;;;;;;10493715;28;20632;-73
2023/07/25 23:09:04;;;;;;;1.83;1.70;;;18.40;44.90;;;;;;10493510;28;20252;-72
2023/07/25 23:14:09;;;;;;;2.80;1.73;;;18.40;45.00;;;;;;10493391;28;20256;-72
2023/07/25 23:19:12;;;;;;;2.30;2.10;;;18.40;45.30;;;;;;10494034;28;20335;-72
2023/07/25 23:24:15;;;;;;;2.00;1.90;;;18.40;45.20;;;;;;10493387;28;20228;-72
2023/07/25 23:29:20;;;;;;;2.30;2.07;;;18.40;45.40;;;;;;10493458;28;20232;-72
2023/07/25 23:34:28;;;;;;;2.57;2.37;;;18.50;45.70;;;;;;10492917;28;20281;-72
2023/07/25 23:39:31;;;;;;;2.57;2.40;;;18.50;46.10;;;;;;10491684;28;20228;-73
2023/07/25 23:44:36;;;;;;;2.57;2.37;;;18.50;45.60;;;;;;10483921;28;20213;-72
2023/07/25 23:49:40;;;;;;;4.07;3.10;;;18.50;45.80;;;;;;10482324;28;20270;-73
2023/07/25 23:54:43;;;;;;;2.90;2.70;;;18.40;45.60;;;;;;10443180;28;1169591;-72
2023/07/25 23:59:48;;;;;;;3.07;2.77;;;18.40;45.70;;;;;;10486381;28;20592;-72
